sensor_id;sensor_type;location;lat;lon;timestamp;P1;durP1;ratioP1;P2;durP2;ratioP2
40729;SDS011;26418;50.070;8.436;2023-07-20T00:04:56;3.65;;;2.33;;
40729;SDS011;26418;50.070;8.436;2023-07-20T00:10:24;4.35;;;2.10;;
40729;SDS011;26418;50.070;8.436;2023-07-20T00:12:55;4.47;;;1.80;;
40729;SDS011;26418;50.070;8.436;2023-07-20T00:15:21;3.78;;;2.13;;
40729;SDS011;26418;50.070;8.436;2023-07-20T00:18:05;5.05;;;2.30;;
40729;SDS011;26418;50.070;8.436;2023-07-20T00:26:03;5.30;;;1.98;;
40729;SDS011;26418;50.070;8.436;2023-07-20T00:28:29;4.40;;;2.08;;
40729;SDS011;26418;50.070;8.436;2023-07-20T00:31:10;3.53;;;1.95;;
40729;SDS011;26418;50.070;8.436;2023-07-20T00:33:38;4.68;;;2.10;;
40729;SDS011;26418;50.070;8.436;2023-07-20T00:36:10;4.55;;;2.47;;
40729;SDS011;26418;50.070;8.436;2023-07-20T00:38:50;5.20;;;2.05;;
40729;SDS011;26418;50.070;8.436;2023-07-20T00:41:16;5.13;;;2.20;;
40729;SDS011;26418;50.070;8.436;2023-07-20T00:44:00;3.60;;;2.20;;
40729;SDS011;26418;50.070;8.436;2023-07-20T00:46:32;5.40;;;2.33;;
40729;SDS011;26418;50.070;8.436;2023-07-20T00:49:00;6.57;;;2.75;;
40729;SDS011;26418;50.070;8.436;2023-07-20T00:51:26;3.92;;;2.22;;
40729;SDS011;26418;50.070;8.436;2023-07-20T00:53:55;4.72;;;2.42;;
40729;SDS011;26418;50.070;8.436;2023-07-20T00:56:24;5.03;;;2.60;;
40729;SDS011;26418;50.070;8.436;2023-07-20T00:58:49;8.45;;;3.08;;
40729;SDS011;26418;50.070;8.436;2023-07-20T01:01:16;5.65;;;2.58;;
40729;SDS011;26418;50.070;8.436;2023-07-20T01:03:44;5.32;;;2.42;;
40729;SDS011;26418;50.070;8.436;2023-07-20T01:06:34;7.00;;;2.42;;
40729;SDS011;26418;50.070;8.436;2023-07-20T01:09:18;4.32;;;3.05;;
40729;SDS011;26418;50.070;8.436;2023-07-20T01:14:37;2.70;;;2.38;;
40729;SDS011;26418;50.070;8.436;2023-07-20T01:17:04;6.80;;;2.55;;
40729;SDS011;26418;50.070;8.436;2023-07-20T01:19:29;3.53;;;2.20;;
40729;SDS011;26418;50.070;8.436;2023-07-20T01:28:04;5.72;;;2.60;;
40729;SDS011;26418;50.070;8.436;2023-07-20T01:33:24;5.25;;;2.67;;
40729;SDS011;26418;50.070;8.436;2023-07-20T01:35:57;4.20;;;2.65;;
40729;SDS011;26418;50.070;8.436;2023-07-20T01:38:25;7.90;;;3.67;;
40729;SDS011;26418;50.070;8.436;2023-07-20T01:40:51;6.22;;;3.70;;
40729;SDS011;26418;50.070;8.436;2023-07-20T01:43:17;7.63;;;3.63;;
40729;SDS011;26418;50.070;8.436;2023-07-20T01:45:43;6.00;;;3.03;;
40729;SDS011;26418;50.070;8.436;2023-07-20T01:48:09;6.07;;;2.85;;
40729;SDS011;26418;50.070;8.436;2023-07-20T01:50:35;12.55;;;2.92;;
40729;SDS011;26418;50.070;8.436;2023-07-20T01:53:01;6.10;;;2.45;;
40729;SDS011;26418;50.070;8.436;2023-07-20T01:55:27;6.47;;;2.90;;
40729;SDS011;26418;50.070;8.436;2023-07-20T01:57:56;4.32;;;2.72;;
40729;SDS011;26418;50.070;8.436;2023-07-20T02:00:22;7.68;;;3.03;;
40729;SDS011;26418;50.070;8.436;2023-07-20T02:02:52;7.65;;;2.63;;
40729;SDS011;26418;50.070;8.436;2023-07-20T02:05:18;3.28;;;2.03;;
40729;SDS011;26418;50.070;8.436;2023-07-20T02:07:43;3.38;;;2.53;;
40729;SDS011;26418;50.070;8.436;2023-07-20T02:10:09;5.95;;;2.72;;
40729;SDS011;26418;50.070;8.436;2023-07-20T02:12:35;3.88;;;2.13;;
40729;SDS011;26418;50.070;8.436;2023-07-20T02:15:02;3.97;;;2.13;;
40729;SDS011;26418;50.070;8.436;2023-07-20T02:17:28;3.60;;;2.35;;
40729;SDS011;26418;50.070;8.436;2023-07-20T02:19:54;10.50;;;3.13;;
40729;SDS011;26418;50.070;8.436;2023-07-20T02:22:20;4.68;;;2.47;;
40729;SDS011;26418;50.070;8.436;2023-07-20T02:24:46;8.60;;;3.10;;
40729;SDS011;26418;50.070;8.436;2023-07-20T02:27:12;9.25;;;2.92;;
40729;SDS011;26418;50.070;8.436;2023-07-20T02:29:38;4.90;;;2.95;;
40729;SDS011;26418;50.070;8.436;2023-07-20T02:32:05;3.72;;;2.53;;
40729;SDS011;26418;50.070;8.436;2023-07-20T02:34:31;4.57;;;3.10;;
40729;SDS011;26418;50.070;8.436;2023-07-20T02:36:57;6.85;;;2.97;;
40729;SDS011;26418;50.070;8.436;2023-07-20T02:39:24;5.50;;;3.03;;
40729;SDS011;26418;50.070;8.436;2023-07-20T02:41:49;7.80;;;2.85;;
40729;SDS011;26418;50.070;8.436;2023-07-20T02:44:15;5.82;;;3.00;;
40729;SDS011;26418;50.070;8.436;2023-07-20T02:46:41;6.22;;;2.38;;
40729;SDS011;26418;50.070;8.436;2023-07-20T02:49:06;6.18;;;3.25;;
40729;SDS011;26418;50.070;8.436;2023-07-20T02:51:32;5.88;;;3.10;;
40729;SDS011;26418;50.070;8.436;2023-07-20T02:53:58;7.53;;;2.35;;
40729;SDS011;26418;50.070;8.436;2023-07-20T02:56:24;3.58;;;2.53;;
40729;SDS011;26418;50.070;8.436;2023-07-20T02:58:50;6.10;;;2.65;;
40729;SDS011;26418;50.070;8.436;2023-07-20T03:01:15;11.85;;;3.20;;
40729;SDS011;26418;50.070;8.436;2023-07-20T03:03:44;3.55;;;2.08;;
40729;SDS011;26418;50.070;8.436;2023-07-20T03:06:16;6.03;;;2.45;;
40729;SDS011;26418;50.070;8.436;2023-07-20T03:08:42;6.05;;;2.78;;
40729;SDS011;26418;50.070;8.436;2023-07-20T03:13:42;6.72;;;2.53;;
40729;SDS011;26418;50.070;8.436;2023-07-20T03:16:12;7.20;;;2.33;;
40729;SDS011;26418;50.070;8.436;2023-07-20T03:18:42;3.80;;;2.30;;
40729;SDS011;26418;50.070;8.436;2023-07-20T03:21:11;4.07;;;2.05;;
40729;SDS011;26418;50.070;8.436;2023-07-20T03:23:37;4.38;;;2.60;;
40729;SDS011;26418;50.070;8.436;2023-07-20T03:26:04;7.43;;;3.05;;
40729;SDS011;26418;50.070;8.436;2023-07-20T03:28:29;7.32;;;2.75;;
40729;SDS011;26418;50.070;8.436;2023-07-20T03:31:01;4.63;;;2.55;;
40729;SDS011;26418;50.070;8.436;2023-07-20T03:33:45;3.45;;;2.03;;
40729;SDS011;26418;50.070;8.436;2023-07-20T03:36:13;3.80;;;2.50;;
40729;SDS011;26418;50.070;8.436;2023-07-20T03:38:39;3.58;;;2.10;;
40729;SDS011;26418;50.070;8.436;2023-07-20T03:41:05;2.92;;;1.85;;
40729;SDS011;26418;50.070;8.436;2023-07-20T03:43:30;3.83;;;2.10;;
40729;SDS011;26418;50.070;8.436;2023-07-20T03:45:56;2.97;;;2.22;;
40729;SDS011;26418;50.070;8.436;2023-07-20T03:48:22;3.45;;;2.42;;
40729;SDS011;26418;50.070;8.436;2023-07-20T03:50:49;4.07;;;2.40;;
40729;SDS011;26418;50.070;8.436;2023-07-20T03:53:15;2.58;;;1.95;;
40729;SDS011;26418;50.070;8.436;2023-07-20T03:55:44;2.03;;;1.77;;
40729;SDS011;26418;50.070;8.436;2023-07-20T03:58:11;4.13;;;2.20;;
40729;SDS011;26418;50.070;8.436;2023-07-20T04:00:37;6.03;;;2.30;;
40729;SDS011;26418;50.070;8.436;2023-07-20T04:03:02;6.40;;;2.67;;
40729;SDS011;26418;50.070;8.436;2023-07-20T04:05:28;4.28;;;2.53;;
40729;SDS011;26418;50.070;8.436;2023-07-20T04:07:53;3.28;;;2.13;;
40729;SDS011;26418;50.070;8.436;2023-07-20T04:10:19;5.40;;;2.42;;
40729;SDS011;26418;50.070;8.436;2023-07-20T04:12:45;3.97;;;2.72;;
40729;SDS011;26418;50.070;8.436;2023-07-20T04:15:12;5.78;;;2.58;;
40729;SDS011;26418;50.070;8.436;2023-07-20T04:17:38;8.07;;;2.40;;
40729;SDS011;26418;50.070;8.436;2023-07-20T04:20:04;3.90;;;2.10;;
40729;SDS011;26418;50.070;8.436;2023-07-20T04:22:31;7.82;;;2.10;;
40729;SDS011;26418;50.070;8.436;2023-07-20T04:24:57;4.07;;;2.42;;
40729;SDS011;26418;50.070;8.436;2023-07-20T04:27:22;7.85;;;2.72;;
40729;SDS011;26418;50.070;8.436;2023-07-20T04:29:48;3.67;;;2.20;;
40729;SDS011;26418;50.070;8.436;2023-07-20T04:32:13;6.35;;;2.53;;
40729;SDS011;26418;50.070;8.436;2023-07-20T04:34:39;6.55;;;2.20;;
40729;SDS011;26418;50.070;8.436;2023-07-20T04:37:04;4.45;;;2.67;;
40729;SDS011;26418;50.070;8.436;2023-07-20T04:39:30;7.28;;;2.72;;
40729;SDS011;26418;50.070;8.436;2023-07-20T04:41:56;4.80;;;2.47;;
40729;SDS011;26418;50.070;8.436;2023-07-20T04:44:22;5.65;;;2.95;;
40729;SDS011;26418;50.070;8.436;2023-07-20T04:46:47;7.80;;;3.10;;
40729;SDS011;26418;50.070;8.436;2023-07-20T04:49:13;5.15;;;2.50;;
40729;SDS011;26418;50.070;8.436;2023-07-20T04:51:39;5.03;;;2.35;;
40729;SDS011;26418;50.070;8.436;2023-07-20T04:54:04;7.63;;;3.00;;
40729;SDS011;26418;50.070;8.436;2023-07-20T04:56:30;4.82;;;2.35;;
40729;SDS011;26418;50.070;8.436;2023-07-20T04:58:56;4.60;;;2.65;;
40729;SDS011;26418;50.070;8.436;2023-07-20T05:01:22;4.93;;;2.75;;
40729;SDS011;26418;50.070;8.436;2023-07-20T05:03:48;7.22;;;2.90;;
40729;SDS011;26418;50.070;8.436;2023-07-20T05:06:14;7.32;;;3.05;;
40729;SDS011;26418;50.070;8.436;2023-07-20T05:08:40;4.95;;;2.60;;
40729;SDS011;26418;50.070;8.436;2023-07-20T05:11:06;6.18;;;2.95;;
40729;SDS011;26418;50.070;8.436;2023-07-20T05:13:35;4.68;;;2.30;;
40729;SDS011;26418;50.070;8.436;2023-07-20T05:16:01;7.63;;;2.58;;
40729;SDS011;26418;50.070;8.436;2023-07-20T05:18:26;6.05;;;2.72;;
40729;SDS011;26418;50.070;8.436;2023-07-20T05:20:52;7.47;;;3.38;;
40729;SDS011;26418;50.070;8.436;2023-07-20T05:23:20;9.55;;;4.05;;
40729;SDS011;26418;50.070;8.436;2023-07-20T05:25:46;5.85;;;3.63;;
40729;SDS011;26418;50.070;8.436;2023-07-20T05:28:12;6.25;;;3.92;;
40729;SDS011;26418;50.070;8.436;2023-07-20T05:30:37;7.22;;;2.92;;
40729;SDS011;26418;50.070;8.436;2023-07-20T05:33:03;12.43;;;3.58;;
40729;SDS011;26418;50.070;8.436;2023-07-20T05:35:30;7.35;;;2.47;;
40729;SDS011;26418;50.070;8.436;2023-07-20T05:37:55;7.47;;;3.47;;
40729;SDS011;26418;50.070;8.436;2023-07-20T05:40:21;7.97;;;3.10;;
40729;SDS011;26418;50.070;8.436;2023-07-20T05:42:47;5.93;;;2.83;;
40729;SDS011;26418;50.070;8.436;2023-07-20T05:45:16;12.02;;;2.42;;
40729;SDS011;26418;50.070;8.436;2023-07-20T05:47:42;5.40;;;3.13;;
40729;SDS011;26418;50.070;8.436;2023-07-20T05:50:09;6.60;;;3.17;;
40729;SDS011;26418;50.070;8.436;2023-07-20T05:52:35;6.30;;;2.78;;
40729;SDS011;26418;50.070;8.436;2023-07-20T05:55:01;7.00;;;2.53;;
40729;SDS011;26418;50.070;8.436;2023-07-20T05:57:26;6.07;;;2.70;;
40729;SDS011;26418;50.070;8.436;2023-07-20T05:59:52;7.85;;;2.60;;
40729;SDS011;26418;50.070;8.436;2023-07-20T06:02:17;6.03;;;3.05;;
40729;SDS011;26418;50.070;8.436;2023-07-20T06:04:43;7.03;;;2.80;;
40729;SDS011;26418;50.070;8.436;2023-07-20T06:07:09;6.13;;;2.53;;
40729;SDS011;26418;50.070;8.436;2023-07-20T06:09:34;11.43;;;2.78;;
40729;SDS011;26418;50.070;8.436;2023-07-20T06:12:00;6.75;;;2.97;;
40729;SDS011;26418;50.070;8.436;2023-07-20T06:14:26;4.30;;;2.35;;
40729;SDS011;26418;50.070;8.436;2023-07-20T06:16:51;5.28;;;2.72;;
40729;SDS011;26418;50.070;8.436;2023-07-20T06:19:17;5.07;;;2.65;;
40729;SDS011;26418;50.070;8.436;2023-07-20T06:21:43;5.13;;;2.33;;
40729;SDS011;26418;50.070;8.436;2023-07-20T06:24:08;4.80;;;2.35;;
40729;SDS011;26418;50.070;8.436;2023-07-20T06:26:34;8.77;;;2.40;;
40729;SDS011;26418;50.070;8.436;2023-07-20T06:29:05;3.03;;;2.03;;
40729;SDS011;26418;50.070;8.436;2023-07-20T06:31:32;4.07;;;2.27;;
40729;SDS011;26418;50.070;8.436;2023-07-20T06:33:58;7.85;;;2.42;;
40729;SDS011;26418;50.070;8.436;2023-07-20T06:36:24;4.63;;;2.72;;
40729;SDS011;26418;50.070;8.436;2023-07-20T06:38:51;4.68;;;2.75;;
40729;SDS011;26418;50.070;8.436;2023-07-20T06:41:17;6.68;;;2.70;;
40729;SDS011;26418;50.070;8.436;2023-07-20T06:43:43;5.95;;;2.30;;
40729;SDS011;26418;50.070;8.436;2023-07-20T06:46:08;6.32;;;2.28;;
40729;SDS011;26418;50.070;8.436;2023-07-20T06:48:34;3.20;;;2.35;;
40729;SDS011;26418;50.070;8.436;2023-07-20T06:50:59;5.10;;;2.08;;
40729;SDS011;26418;50.070;8.436;2023-07-20T06:53:25;4.45;;;2.17;;
40729;SDS011;26418;50.070;8.436;2023-07-20T06:55:51;3.72;;;2.20;;
40729;SDS011;26418;50.070;8.436;2023-07-20T06:58:16;4.15;;;2.25;;
40729;SDS011;26418;50.070;8.436;2023-07-20T07:00:43;7.70;;;2.50;;
40729;SDS011;26418;50.070;8.436;2023-07-20T07:03:09;8.32;;;2.30;;
40729;SDS011;26418;50.070;8.436;2023-07-20T07:05:38;3.72;;;3.00;;
40729;SDS011;26418;50.070;8.436;2023-07-20T07:08:04;4.80;;;2.20;;
40729;SDS011;26418;50.070;8.436;2023-07-20T07:10:30;4.72;;;2.22;;
40729;SDS011;26418;50.070;8.436;2023-07-20T07:12:56;5.47;;;2.33;;
40729;SDS011;26418;50.070;8.436;2023-07-20T07:15:21;5.47;;;2.33;;
40729;SDS011;26418;50.070;8.436;2023-07-20T07:17:47;4.70;;;2.45;;
40729;SDS011;26418;50.070;8.436;2023-07-20T07:20:13;3.25;;;2.08;;
40729;SDS011;26418;50.070;8.436;2023-07-20T07:22:38;7.03;;;2.72;;
40729;SDS011;26418;50.070;8.436;2023-07-20T07:25:04;4.80;;;2.30;;
40729;SDS011;26418;50.070;8.436;2023-07-20T07:27:30;6.30;;;2.80;;
40729;SDS011;26418;50.070;8.436;2023-07-20T07:29:55;4.38;;;2.38;;
40729;SDS011;26418;50.070;8.436;2023-07-20T07:32:21;5.55;;;2.70;;
40729;SDS011;26418;50.070;8.436;2023-07-20T07:34:47;4.25;;;2.70;;
40729;SDS011;26418;50.070;8.436;2023-07-20T07:37:13;3.70;;;2.20;;
40729;SDS011;26418;50.070;8.436;2023-07-20T07:39:39;5.03;;;2.38;;
40729;SDS011;26418;50.070;8.436;2023-07-20T07:42:05;6.60;;;2.65;;
40729;SDS011;26418;50.070;8.436;2023-07-20T07:44:31;4.47;;;2.33;;
40729;SDS011;26418;50.070;8.436;2023-07-20T07:46:57;4.47;;;2.63;;
40729;SDS011;26418;50.070;8.436;2023-07-20T07:49:22;5.70;;;2.97;;
40729;SDS011;26418;50.070;8.436;2023-07-20T07:51:48;5.43;;;2.70;;
40729;SDS011;26418;50.070;8.436;2023-07-20T07:54:14;4.75;;;2.63;;
40729;SDS011;26418;50.070;8.436;2023-07-20T07:56:39;5.65;;;2.92;;
40729;SDS011;26418;50.070;8.436;2023-07-20T07:59:06;3.47;;;2.33;;
40729;SDS011;26418;50.070;8.436;2023-07-20T08:01:32;3.47;;;2.20;;
40729;SDS011;26418;50.070;8.436;2023-07-20T08:03:57;3.83;;;2.15;;
40729;SDS011;26418;50.070;8.436;2023-07-20T08:06:23;5.53;;;2.38;;
40729;SDS011;26418;50.070;8.436;2023-07-20T08:08:49;12.43;;;2.28;;
40729;SDS011;26418;50.070;8.436;2023-07-20T08:11:15;6.43;;;2.72;;
40729;SDS011;26418;50.070;8.436;2023-07-20T08:13:43;4.45;;;2.22;;
40729;SDS011;26418;50.070;8.436;2023-07-20T08:16:08;4.03;;;2.30;;
40729;SDS011;26418;50.070;8.436;2023-07-20T08:18:34;2.38;;;1.90;;
40729;SDS011;26418;50.070;8.436;2023-07-20T08:21:00;3.53;;;2.20;;
40729;SDS011;26418;50.070;8.436;2023-07-20T08:23:25;7.72;;;2.42;;
40729;SDS011;26418;50.070;8.436;2023-07-20T08:25:52;3.42;;;2.50;;
40729;SDS011;26418;50.070;8.436;2023-07-20T08:28:18;4.55;;;2.75;;
40729;SDS011;26418;50.070;8.436;2023-07-20T08:30:45;3.15;;;2.50;;
40729;SDS011;26418;50.070;8.436;2023-07-20T08:33:18;5.03;;;2.47;;
40729;SDS011;26418;50.070;8.436;2023-07-20T08:35:45;3.28;;;2.30;;
40729;SDS011;26418;50.070;8.436;2023-07-20T08:38:10;3.70;;;2.05;;
40729;SDS011;26418;50.070;8.436;2023-07-20T08:40:41;5.07;;;2.38;;
40729;SDS011;26418;50.070;8.436;2023-07-20T08:43:08;4.47;;;2.10;;
40729;SDS011;26418;50.070;8.436;2023-07-20T08:45:35;3.28;;;2.05;;
40729;SDS011;26418;50.070;8.436;2023-07-20T08:48:04;6.85;;;2.28;;
40729;SDS011;26418;50.070;8.436;2023-07-20T08:50:31;3.50;;;2.38;;
40729;SDS011;26418;50.070;8.436;2023-07-20T08:52:58;6.38;;;2.88;;
40729;SDS011;26418;50.070;8.436;2023-07-20T08:55:25;6.72;;;2.55;;
40729;SDS011;26418;50.070;8.436;2023-07-20T08:57:55;4.03;;;2.50;;
40729;SDS011;26418;50.070;8.436;2023-07-20T09:00:24;5.15;;;2.40;;
40729;SDS011;26418;50.070;8.436;2023-07-20T09:02:52;6.05;;;2.67;;
40729;SDS011;26418;50.070;8.436;2023-07-20T09:05:18;3.40;;;2.05;;
40729;SDS011;26418;50.070;8.436;2023-07-20T09:07:44;3.10;;;1.85;;
40729;SDS011;26418;50.070;8.436;2023-07-20T09:10:11;4.38;;;2.08;;
40729;SDS011;26418;50.070;8.436;2023-07-20T09:12:38;4.90;;;2.10;;
40729;SDS011;26418;50.070;8.436;2023-07-20T09:15:05;2.95;;;1.88;;
40729;SDS011;26418;50.070;8.436;2023-07-20T09:17:32;7.82;;;2.50;;
40729;SDS011;26418;50.070;8.436;2023-07-20T09:19:58;3.53;;;2.63;;
40729;SDS011;26418;50.070;8.436;2023-07-20T09:22:32;3.35;;;1.67;;
40729;SDS011;26418;50.070;8.436;2023-07-20T09:24:58;4.88;;;1.85;;
40729;SDS011;26418;50.070;8.436;2023-07-20T09:27:37;3.70;;;2.60;;
40729;SDS011;26418;50.070;8.436;2023-07-20T09:30:04;5.80;;;2.17;;
40729;SDS011;26418;50.070;8.436;2023-07-20T09:32:35;4.50;;;2.30;;
40729;SDS011;26418;50.070;8.436;2023-07-20T09:35:04;7.20;;;2.20;;
40729;SDS011;26418;50.070;8.436;2023-07-20T09:37:30;5.22;;;2.67;;
40729;SDS011;26418;50.070;8.436;2023-07-20T09:39:58;2.50;;;1.90;;
40729;SDS011;26418;50.070;8.436;2023-07-20T09:42:25;3.25;;;2.33;;
40729;SDS011;26418;50.070;8.436;2023-07-20T09:44:52;3.90;;;2.20;;
40729;SDS011;26418;50.070;8.436;2023-07-20T09:47:24;5.30;;;2.28;;
40729;SDS011;26418;50.070;8.436;2023-07-20T09:49:57;3.30;;;1.88;;
40729;SDS011;26418;50.070;8.436;2023-07-20T09:52:28;2.15;;;1.60;;
40729;SDS011;26418;50.070;8.436;2023-07-20T09:54:54;3.50;;;2.20;;
40729;SDS011;26418;50.070;8.436;2023-07-20T09:57:20;3.70;;;2.00;;
40729;SDS011;26418;50.070;8.436;2023-07-20T09:59:46;3.53;;;1.60;;
40729;SDS011;26418;50.070;8.436;2023-07-20T10:02:23;2.88;;;2.05;;
40729;SDS011;26418;50.070;8.436;2023-07-20T10:04:55;5.53;;;1.73;;
40729;SDS011;26418;50.070;8.436;2023-07-20T10:07:25;3.45;;;1.83;;
40729;SDS011;26418;50.070;8.436;2023-07-20T10:09:53;2.58;;;1.95;;
40729;SDS011;26418;50.070;8.436;2023-07-20T10:12:22;3.85;;;2.22;;
40729;SDS011;26418;50.070;8.436;2023-07-20T10:14:56;4.93;;;2.22;;
40729;SDS011;26418;50.070;8.436;2023-07-20T10:17:30;2.72;;;1.92;;
40729;SDS011;26418;50.070;8.436;2023-07-20T10:19:56;2.63;;;1.95;;
40729;SDS011;26418;50.070;8.436;2023-07-20T10:22:26;6.25;;;2.40;;
40729;SDS011;26418;50.070;8.436;2023-07-20T10:24:52;4.70;;;2.30;;
40729;SDS011;26418;50.070;8.436;2023-07-20T10:27:23;3.15;;;2.08;;
40729;SDS011;26418;50.070;8.436;2023-07-20T10:29:50;4.18;;;2.53;;
40729;SDS011;26418;50.070;8.436;2023-07-20T10:32:18;4.45;;;2.10;;
40729;SDS011;26418;50.070;8.436;2023-07-20T10:34:55;4.82;;;2.10;;
40729;SDS011;26418;50.070;8.436;2023-07-20T10:40:25;6.97;;;2.55;;
40729;SDS011;26418;50.070;8.436;2023-07-20T10:42:57;4.70;;;1.92;;
40729;SDS011;26418;50.070;8.436;2023-07-20T10:48:02;3.33;;;2.47;;
40729;SDS011;26418;50.070;8.436;2023-07-20T10:50:30;2.28;;;1.80;;
40729;SDS011;26418;50.070;8.436;2023-07-20T10:53:09;2.58;;;2.15;;
40729;SDS011;26418;50.070;8.436;2023-07-20T10:55:36;5.50;;;2.57;;
40729;SDS011;26418;50.070;8.436;2023-07-20T10:58:08;4.25;;;2.35;;
40729;SDS011;26418;50.070;8.436;2023-07-20T11:00:58;2.80;;;2.28;;
40729;SDS011;26418;50.070;8.436;2023-07-20T11:03:27;5.00;;;2.15;;
40729;SDS011;26418;50.070;8.436;2023-07-20T11:05:54;6.00;;;2.20;;
40729;SDS011;26418;50.070;8.436;2023-07-20T11:08:40;3.22;;;2.00;;
40729;SDS011;26418;50.070;8.436;2023-07-20T11:11:26;2.85;;;1.80;;
40729;SDS011;26418;50.070;8.436;2023-07-20T11:14:02;5.10;;;1.92;;
40729;SDS011;26418;50.070;8.436;2023-07-20T11:21:44;4.47;;;1.55;;
40729;SDS011;26418;50.070;8.436;2023-07-20T11:24:11;4.88;;;2.03;;
40729;SDS011;26418;50.070;8.436;2023-07-20T11:26:45;5.40;;;2.15;;
40729;SDS011;26418;50.070;8.436;2023-07-20T11:29:16;3.60;;;1.90;;
40729;SDS011;26418;50.070;8.436;2023-07-20T11:31:44;3.65;;;1.70;;
40729;SDS011;26418;50.070;8.436;2023-07-20T11:34:11;2.78;;;1.73;;
40729;SDS011;26418;50.070;8.436;2023-07-20T11:36:41;3.45;;;1.98;;
40729;SDS011;26418;50.070;8.436;2023-07-20T11:39:09;3.07;;;1.97;;
40729;SDS011;26418;50.070;8.436;2023-07-20T11:41:35;5.72;;;1.73;;
40729;SDS011;26418;50.070;8.436;2023-07-20T11:44:01;4.50;;;2.03;;
40729;SDS011;26418;50.070;8.436;2023-07-20T11:46:30;5.88;;;2.30;;
40729;SDS011;26418;50.070;8.436;2023-07-20T11:48:58;4.07;;;1.98;;
40729;SDS011;26418;50.070;8.436;2023-07-20T11:51:26;2.30;;;1.90;;
40729;SDS011;26418;50.070;8.436;2023-07-20T11:53:52;5.13;;;2.03;;
40729;SDS011;26418;50.070;8.436;2023-07-20T11:56:18;2.30;;;1.90;;
40729;SDS011;26418;50.070;8.436;2023-07-20T11:58:44;3.72;;;1.73;;
40729;SDS011;26418;50.070;8.436;2023-07-20T12:01:11;5.65;;;2.00;;
40729;SDS011;26418;50.070;8.436;2023-07-20T12:03:38;3.67;;;1.73;;
40729;SDS011;26418;50.070;8.436;2023-07-20T12:06:07;7.45;;;2.25;;
40729;SDS011;26418;50.070;8.436;2023-07-20T12:08:33;5.57;;;1.88;;
40729;SDS011;26418;50.070;8.436;2023-07-20T12:10:59;2.65;;;1.90;;
40729;SDS011;26418;50.070;8.436;2023-07-20T12:13:37;4.85;;;2.30;;
40729;SDS011;26418;50.070;8.436;2023-07-20T12:16:15;5.70;;;1.80;;
40729;SDS011;26418;50.070;8.436;2023-07-20T12:18:45;4.68;;;1.92;;
40729;SDS011;26418;50.070;8.436;2023-07-20T12:21:10;3.85;;;2.17;;
40729;SDS011;26418;50.070;8.436;2023-07-20T12:23:39;2.10;;;1.63;;
40729;SDS011;26418;50.070;8.436;2023-07-20T12:26:09;3.47;;;1.77;;
40729;SDS011;26418;50.070;8.436;2023-07-20T12:28:38;3.63;;;1.88;;
40729;SDS011;26418;50.070;8.436;2023-07-20T12:31:08;5.97;;;2.25;;
40729;SDS011;26418;50.070;8.436;2023-07-20T12:33:34;6.38;;;1.52;;
40729;SDS011;26418;50.070;8.436;2023-07-20T12:36:00;4.82;;;1.92;;
40729;SDS011;26418;50.070;8.436;2023-07-20T12:38:26;2.67;;;2.08;;
40729;SDS011;26418;50.070;8.436;2023-07-20T12:40:53;3.17;;;1.70;;
40729;SDS011;26418;50.070;8.436;2023-07-20T12:43:20;2.40;;;1.50;;
40729;SDS011;26418;50.070;8.436;2023-07-20T12:45:46;3.38;;;1.88;;
40729;SDS011;26418;50.070;8.436;2023-07-20T12:48:12;6.65;;;2.28;;
40729;SDS011;26418;50.070;8.436;2023-07-20T12:50:37;5.85;;;2.33;;
40729;SDS011;26418;50.070;8.436;2023-07-20T12:53:03;4.88;;;2.20;;
40729;SDS011;26418;50.070;8.436;2023-07-20T12:55:29;8.00;;;2.10;;
40729;SDS011;26418;50.070;8.436;2023-07-20T12:57:55;2.13;;;1.58;;
40729;SDS011;26418;50.070;8.436;2023-07-20T13:00:20;2.80;;;1.50;;
40729;SDS011;26418;50.070;8.436;2023-07-20T13:02:49;1.88;;;1.27;;
40729;SDS011;26418;50.070;8.436;2023-07-20T13:05:15;2.13;;;1.63;;
40729;SDS011;26418;50.070;8.436;2023-07-20T13:07:41;3.70;;;2.00;;
40729;SDS011;26418;50.070;8.436;2023-07-20T13:10:07;3.78;;;2.05;;
40729;SDS011;26418;50.070;8.436;2023-07-20T13:12:35;2.20;;;1.30;;
40729;SDS011;26418;50.070;8.436;2023-07-20T13:15:01;9.57;;;1.48;;
40729;SDS011;26418;50.070;8.436;2023-07-20T13:17:31;1.40;;;1.30;;
40729;SDS011;26418;50.070;8.436;2023-07-20T13:19:58;2.55;;;1.52;;
40729;SDS011;26418;50.070;8.436;2023-07-20T13:22:24;1.98;;;1.55;;
40729;SDS011;26418;50.070;8.436;2023-07-20T13:24:49;2.30;;;1.88;;
40729;SDS011;26418;50.070;8.436;2023-07-20T13:27:15;3.42;;;1.52;;
40729;SDS011;26418;50.070;8.436;2023-07-20T13:29:42;3.78;;;1.67;;
40729;SDS011;26418;50.070;8.436;2023-07-20T13:32:08;3.53;;;1.92;;
40729;SDS011;26418;50.070;8.436;2023-07-20T13:34:34;3.55;;;2.05;;
40729;SDS011;26418;50.070;8.436;2023-07-20T13:36:59;2.97;;;1.85;;
40729;SDS011;26418;50.070;8.436;2023-07-20T13:39:26;5.63;;;1.50;;
40729;SDS011;26418;50.070;8.436;2023-07-20T13:41:54;6.40;;;2.08;;
40729;SDS011;26418;50.070;8.436;2023-07-20T13:44:20;1.98;;;1.25;;
40729;SDS011;26418;50.070;8.436;2023-07-20T13:46:46;2.58;;;1.63;;
40729;SDS011;26418;50.070;8.436;2023-07-20T13:49:12;2.40;;;1.83;;
40729;SDS011;26418;50.070;8.436;2023-07-20T13:51:39;3.88;;;1.83;;
40729;SDS011;26418;50.070;8.436;2023-07-20T13:54:05;3.35;;;1.30;;
40729;SDS011;26418;50.070;8.436;2023-07-20T13:56:31;2.40;;;1.52;;
40729;SDS011;26418;50.070;8.436;2023-07-20T13:58:57;2.92;;;1.67;;
40729;SDS011;26418;50.070;8.436;2023-07-20T14:01:22;4.15;;;1.60;;
40729;SDS011;26418;50.070;8.436;2023-07-20T14:03:50;3.85;;;2.00;;
40729;SDS011;26418;50.070;8.436;2023-07-20T14:06:16;4.10;;;1.20;;
40729;SDS011;26418;50.070;8.436;2023-07-20T14:08:42;1.95;;;1.45;;
40729;SDS011;26418;50.070;8.436;2023-07-20T14:11:11;3.42;;;1.35;;
40729;SDS011;26418;50.070;8.436;2023-07-20T14:13:37;2.58;;;1.45;;
40729;SDS011;26418;50.070;8.436;2023-07-20T14:16:03;1.85;;;1.42;;
40729;SDS011;26418;50.070;8.436;2023-07-20T14:18:29;3.65;;;2.08;;
40729;SDS011;26418;50.070;8.436;2023-07-20T14:20:54;2.40;;;1.55;;
40729;SDS011;26418;50.070;8.436;2023-07-20T14:23:20;4.00;;;1.63;;
40729;SDS011;26418;50.070;8.436;2023-07-20T14:25:46;1.73;;;1.30;;
40729;SDS011;26418;50.070;8.436;2023-07-20T14:28:11;1.88;;;1.10;;
40729;SDS011;26418;50.070;8.436;2023-07-20T14:30:38;3.17;;;1.63;;
40729;SDS011;26418;50.070;8.436;2023-07-20T14:33:03;1.65;;;1.55;;
40729;SDS011;26418;50.070;8.436;2023-07-20T14:35:29;2.08;;;1.15;;
40729;SDS011;26418;50.070;8.436;2023-07-20T14:37:54;2.58;;;1.08;;
40729;SDS011;26418;50.070;8.436;2023-07-20T14:40:20;2.03;;;1.60;;
40729;SDS011;26418;50.070;8.436;2023-07-20T14:42:46;3.20;;;1.40;;
40729;SDS011;26418;50.070;8.436;2023-07-20T14:45:11;3.08;;;1.67;;
40729;SDS011;26418;50.070;8.436;2023-07-20T14:47:37;4.38;;;1.55;;
40729;SDS011;26418;50.070;8.436;2023-07-20T14:50:03;2.13;;;1.10;;
40729;SDS011;26418;50.070;8.436;2023-07-20T14:52:29;6.18;;;1.70;;
40729;SDS011;26418;50.070;8.436;2023-07-20T14:54:55;2.42;;;1.52;;
40729;SDS011;26418;50.070;8.436;2023-07-20T14:57:21;3.22;;;1.73;;
40729;SDS011;26418;50.070;8.436;2023-07-20T14:59:48;2.85;;;1.48;;
40729;SDS011;26418;50.070;8.436;2023-07-20T15:02:15;3.22;;;1.60;;
40729;SDS011;26418;50.070;8.436;2023-07-20T15:04:50;2.85;;;1.58;;
40729;SDS011;26418;50.070;8.436;2023-07-20T15:07:18;5.00;;;1.42;;
40729;SDS011;26418;50.070;8.436;2023-07-20T15:09:45;12.65;;;1.30;;
40729;SDS011;26418;50.070;8.436;2023-07-20T15:12:10;3.38;;;1.60;;
40729;SDS011;26418;50.070;8.436;2023-07-20T15:14:39;3.15;;;1.40;;
40729;SDS011;26418;50.070;8.436;2023-07-20T15:17:06;3.28;;;1.40;;
40729;SDS011;26418;50.070;8.436;2023-07-20T15:19:32;2.38;;;1.13;;
40729;SDS011;26418;50.070;8.436;2023-07-20T15:21:59;4.78;;;1.70;;
40729;SDS011;26418;50.070;8.436;2023-07-20T15:24:25;2.83;;;1.63;;
40729;SDS011;26418;50.070;8.436;2023-07-20T15:26:51;1.95;;;1.17;;